Time;durP1;ratioP1;P1;durP2;ratioP2;P2;SDS_P1;SDS_P2;PMS_P1;PMS_P2;Temp;Humidity;BMP_temperature;BMP_pressure;BME280_temperature;BME280_humidity;BME280_pressure;Samples;Min_cycle;Max_cycle;Signal;HPM_P1;HPM_P2
2021/06/04 00:01:26;;;;;;;16.83;15.10;;;20.00;99.90;;;;;;5004002;28;20258;-69
2021/06/04 00:03:52;;;;;;;15.03;13.47;;;20.00;99.90;;;;;;4996123;28;20175;-69
2021/06/04 00:06:19;;;;;;;15.00;13.50;;;19.90;99.90;;;;;;4993857;28;20429;-69
2021/06/04 00:08:48;;;;;;;16.30;14.80;;;19.90;99.90;;;;;;4995524;28;20482;-69
2021/06/04 00:11:25;;;;;;;17.10;15.50;;;19.90;99.90;;;;;;4994165;28;20470;-69
2021/06/04 00:13:58;;;;;;;17.03;15.53;;;19.90;99.90;;;;;;4993788;28;20554;-69
2021/06/04 00:16:33;;;;;;;18.53;16.77;;;19.90;99.90;;;;;;4995240;28;20425;-69
2021/06/04 00:19:01;;;;;;;19.20;17.33;;;19.90;99.90;;;;;;4998580;28;20485;-69
2021/06/04 00:21:31;;;;;;;17.70;16.20;;;19.90;99.90;;;;;;5005242;28;20602;-69
2021/06/04 00:24:01;;;;;;;17.83;16.13;;;19.80;99.90;;;;;;5002607;28;20439;-69
2021/06/04 00:26:29;;;;;;;18.70;17.10;;;19.80;99.90;;;;;;4996159;28;20454;-69
2021/06/04 00:28:55;;;;;;;19.20;17.37;;;19.80;99.90;;;;;;5007819;28;20500;-69
2021/06/04 00:31:21;;;;;;;19.13;17.13;;;19.80;99.90;;;;;;5005767;28;20421;-69
2021/06/04 00:33:47;;;;;;;16.27;14.70;;;19.80;99.90;;;;;;5003833;28;20488;-69
2021/06/04 00:36:13;;;;;;;17.33;15.73;;;19.70;99.90;;;;;;5005854;28;20557;-69
2021/06/04 00:38:40;;;;;;;18.60;16.67;;;19.70;99.90;;;;;;5007175;28;20463;-69
2021/06/04 00:41:13;;;;;;;18.30;16.60;;;19.70;99.90;;;;;;5006496;28;20443;-68
2021/06/04 00:43:38;;;;;;;16.63;15.10;;;19.70;99.90;;;;;;5005768;28;20438;-68
2021/06/04 00:46:07;;;;;;;16.80;15.10;;;19.70;99.90;;;;;;5006333;28;20430;-69
2021/06/04 00:48:34;;;;;;;18.20;16.30;;;19.70;99.90;;;;;;5006388;28;20732;-69
2021/06/04 00:51:15;;;;;;;16.30;14.87;;;19.70;99.90;;;;;;5006167;28;20442;-68
2021/06/04 00:53:42;;;;;;;17.73;15.93;;;19.60;99.90;;;;;;5004001;28;20427;-69
2021/06/04 00:56:08;;;;;;;16.97;15.47;;;19.60;99.90;;;;;;5006582;28;20967;-69
2021/06/04 00:58:45;;;;;;;16.57;14.90;;;19.70;99.90;;;;;;5008816;28;20580;-69
2021/06/04 01:01:12;;;;;;;17.33;15.77;;;19.60;99.90;;;;;;5003189;28;20426;-69
2021/06/04 01:03:41;;;;;;;17.40;15.60;;;19.60;99.90;;;;;;5008975;28;20489;-69
2021/06/04 01:06:46;;;;;;;18.33;16.43;;;19.60;99.90;;;;;;5006982;28;20517;-69
2021/06/04 01:09:45;;;;;;;17.07;15.13;;;19.60;99.90;;;;;;5010258;28;20477;-69
2021/06/04 01:12:44;;;;;;;15.83;14.37;;;19.60;99.90;;;;;;5010698;28;20449;-69
2021/06/04 01:15:23;;;;;;;15.80;14.30;;;19.50;99.90;;;;;;5010152;28;20549;-69
2021/06/04 01:18:14;;;;;;;15.13;13.63;;;19.50;99.90;;;;;;5010561;28;20430;-69
2021/06/04 01:20:54;;;;;;;14.80;13.33;;;19.50;99.90;;;;;;5023049;28;20444;-69
2021/06/04 01:23:38;;;;;;;13.63;12.43;;;19.50;99.90;;;;;;5008354;28;20526;-69
2021/06/04 01:26:08;;;;;;;15.03;13.70;;;19.50;99.90;;;;;;4994526;28;20434;-69
2021/06/04 01:28:45;;;;;;;16.10;14.00;;;19.50;99.90;;;;;;5008534;28;20817;-68
2021/06/04 01:31:29;;;;;;;14.40;13.10;;;19.50;99.90;;;;;;5006377;28;20434;-69
2021/06/04 01:34:12;;;;;;;15.93;14.43;;;19.50;99.90;;;;;;5006914;28;20664;-68
2021/06/04 01:36:51;;;;;;;13.63;12.53;;;19.40;99.90;;;;;;4996500;28;20507;-69
2021/06/04 01:39:27;;;;;;;17.67;15.77;;;19.40;99.90;;;;;;5004718;28;20442;-69
2021/06/04 01:41:54;;;;;;;15.57;14.03;;;19.40;99.90;;;;;;5007639;28;21161;-69
2021/06/04 01:44:35;;;;;;;15.90;14.43;;;19.40;99.90;;;;;;5002931;28;20442;-69
2021/06/04 01:47:08;;;;;;;19.03;17.13;;;19.40;99.90;;;;;;5002020;28;20436;-69
2021/06/04 01:49:38;;;;;;;24.00;21.27;;;19.40;99.90;;;;;;5010017;28;20868;-69
2021/06/04 01:52:13;;;;;;;18.47;16.57;;;19.40;99.90;;;;;;5008819;28;20520;-69
2021/06/04 01:54:45;;;;;;;19.87;17.70;;;19.40;99.90;;;;;;4999683;28;20430;-69
2021/06/04 01:57:15;;;;;;;19.50;17.50;;;19.40;99.90;;;;;;5008966;28;20496;-68
2021/06/04 01:59:46;;;;;;;19.43;16.43;;;19.30;99.90;;;;;;5005430;28;20468;-69
2021/06/04 02:02:13;;;;;;;20.57;18.00;;;19.30;99.90;;;;;;5010289;28;20434;-69
2021/06/04 02:04:50;;;;;;;17.80;16.00;;;19.30;99.90;;;;;;5007048;28;20465;-69
2021/06/04 02:07:19;;;;;;;18.60;16.80;;;19.30;99.90;;;;;;5008122;28;20930;-69
2021/06/04 02:09:46;;;;;;;17.87;16.13;;;19.30;99.90;;;;;;5007545;28;20463;-68
2021/06/04 02:12:13;;;;;;;18.30;16.50;;;19.30;99.90;;;;;;5008906;28;20432;-68
2021/06/04 02:14:48;;;;;;;17.97;16.40;;;19.30;99.90;;;;;;5008424;28;20434;-69
2021/06/04 02:17:32;;;;;;;18.10;16.50;;;19.30;99.90;;;;;;5009387;28;20517;-69
2021/06/04 02:20:24;;;;;;;19.70;17.97;;;19.20;99.90;;;;;;5010456;28;20468;-69
2021/06/04 02:23:08;;;;;;;16.37;14.70;;;19.20;99.90;;;;;;5007300;28;20449;-69
2021/06/04 02:26:04;;;;;;;17.17;15.40;;;19.20;99.90;;;;;;5022068;28;20430;-69
2021/06/04 02:28:42;;;;;;;15.23;13.83;;;19.20;99.90;;;;;;4998978;28;20521;-69
2021/06/04 02:31:33;;;;;;;15.70;14.20;;;19.20;99.90;;;;;;5017703;28;20434;-69
2021/06/04 02:34:03;;;;;;;15.73;14.30;;;19.20;99.90;;;;;;5006039;28;20947;-69
2021/06/04 02:36:34;;;;;;;18.23;16.63;;;19.20;99.90;;;;;;5010288;28;20528;-68
2021/06/04 02:39:08;;;;;;;14.73;13.20;;;19.20;99.90;;;;;;5007801;28;21064;-69
2021/06/04 02:41:42;;;;;;;16.50;15.00;;;19.10;99.90;;;;;;5007926;28;20451;-69
2021/06/04 02:44:14;;;;;;;16.67;15.17;;;19.10;99.90;;;;;;5008233;28;20544;-69
2021/06/04 02:46:50;;;;;;;15.53;14.23;;;19.10;99.90;;;;;;5001548;28;20444;-69
2021/06/04 02:49:19;;;;;;;17.40;15.83;;;19.20;99.90;;;;;;5007844;28;20544;-69
2021/06/04 02:52:08;;;;;;;18.67;17.07;;;19.10;99.90;;;;;;4998975;28;20769;-68
2021/06/04 02:54:36;;;;;;;19.13;17.23;;;19.10;99.90;;;;;;5007031;28;20465;-69
2021/06/04 02:57:12;;;;;;;19.83;17.83;;;19.10;99.90;;;;;;5008146;28;20432;-69
2021/06/04 02:59:41;;;;;;;18.30;16.47;;;19.10;99.90;;;;;;5004761;28;20549;-68
2021/06/04 03:02:11;;;;;;;17.57;15.63;;;19.10;99.90;;;;;;5008577;28;20506;-68
2021/06/04 03:04:41;;;;;;;18.17;16.40;;;19.10;99.90;;;;;;4999948;28;20433;-68
2021/06/04 03:07:16;;;;;;;17.73;16.00;;;19.10;99.90;;;;;;5006225;28;20510;-68
2021/06/04 03:09:43;;;;;;;17.50;15.67;;;19.10;99.90;;;;;;5007384;28;20482;-68
2021/06/04 03:12:17;;;;;;;17.17;15.47;;;19.10;99.90;;;;;;5007104;28;20440;-68
2021/06/04 03:14:46;;;;;;;16.30;14.80;;;19.10;99.90;;;;;;5007296;28;20782;-68
2021/06/04 03:17:12;;;;;;;16.90;14.17;;;19.00;99.90;;;;;;5009545;28;20431;-68
2021/06/04 03:19:38;;;;;;;14.83;13.43;;;19.10;99.90;;;;;;5007444;28;20926;-68
2021/06/04 03:22:12;;;;;;;19.27;17.07;;;19.00;99.90;;;;;;5005488;28;20883;-68
2021/06/04 03:24:40;;;;;;;15.97;14.67;;;19.10;99.90;;;;;;4997329;28;20431;-68
2021/06/04 03:27:07;;;;;;;16.07;14.57;;;19.00;99.90;;;;;;5001789;28;20461;-68
2021/06/04 03:29:33;;;;;;;18.07;16.17;;;19.00;99.90;;;;;;5008945;28;20564;-68
2021/06/04 03:32:02;;;;;;;18.40;16.77;;;19.00;99.90;;;;;;5006258;28;20525;-68
2021/06/04 03:34:29;;;;;;;16.97;15.40;;;19.00;99.90;;;;;;5005100;28;20773;-68
2021/06/04 03:36:57;;;;;;;17.70;16.00;;;19.00;99.90;;;;;;4997656;28;20443;-68
2021/06/04 03:39:26;;;;;;;16.50;15.10;;;19.00;99.90;;;;;;5006205;28;20508;-68
2021/06/04 03:41:54;;;;;;;17.20;15.50;;;19.00;99.90;;;;;;5024151;28;20528;-68
2021/06/04 03:44:24;;;;;;;17.60;15.77;;;19.00;99.90;;;;;;5006286;28;20482;-68
2021/06/04 03:46:50;;;;;;;16.47;14.90;;;19.00;99.90;;;;;;5006466;28;20465;-68
2021/06/04 03:49:17;;;;;;;16.30;14.80;;;19.00;99.90;;;;;;5007287;28;20504;-68
2021/06/04 03:51:44;;;;;;;18.30;15.87;;;19.00;99.90;;;;;;5007886;28;20222;-68
2021/06/04 03:54:15;;;;;;;16.27;14.03;;;19.00;99.90;;;;;;5005647;28;20428;-68
2021/06/04 03:56:41;;;;;;;17.07;14.97;;;19.10;99.90;;;;;;5001334;28;20424;-68
2021/06/04 03:59:08;;;;;;;17.00;15.03;;;19.00;99.90;;;;;;5007246;28;20547;-68
2021/06/04 04:01:37;;;;;;;17.00;14.97;;;19.00;99.90;;;;;;5003732;28;20436;-68
2021/06/04 04:04:04;;;;;;;18.70;15.80;;;19.00;99.90;;;;;;4995170;28;20439;-68
2021/06/04 04:06:30;;;;;;;18.47;16.50;;;19.00;99.90;;;;;;5004347;28;20657;-68
2021/06/04 04:08:55;;;;;;;17.53;15.63;;;19.10;99.90;;;;;;5006262;28;20475;-68
2021/06/04 04:11:21;;;;;;;18.80;16.87;;;19.00;99.90;;;;;;5008332;28;20864;-68
2021/06/04 04:13:50;;;;;;;14.67;13.27;;;19.10;99.90;;;;;;5008678;28;20547;-68
2021/06/04 04:16:15;;;;;;;15.70;14.30;;;19.10;99.90;;;;;;5005985;28;20558;-68
2021/06/04 04:18:41;;;;;;;16.90;15.13;;;19.10;99.90;;;;;;5008405;28;20444;-68
2021/06/04 04:21:10;;;;;;;16.13;14.63;;;19.10;99.90;;;;;;5007080;28;20176;-68
2021/06/04 04:23:40;;;;;;;15.20;13.60;;;19.10;99.90;;;;;;5002975;28;20188;-68
2021/06/04 04:26:07;;;;;;;15.63;14.03;;;19.20;99.90;;;;;;5005783;28;20442;-68
2021/06/04 04:28:36;;;;;;;18.97;15.13;;;19.20;99.90;;;;;;5000741;28;21001;-68
2021/06/04 04:31:03;;;;;;;17.30;15.60;;;19.20;99.90;;;;;;5005251;28;20424;-68
2021/06/04 04:33:29;;;;;;;16.57;14.70;;;19.20;99.90;;;;;;5005784;28;20982;-68
2021/06/04 04:35:55;;;;;;;17.60;15.73;;;19.30;99.90;;;;;;5001145;28;20433;-68
2021/06/04 04:38:21;;;;;;;16.20;14.60;;;19.30;99.90;;;;;;5011016;28;20232;-68
2021/06/04 04:40:51;;;;;;;16.57;15.07;;;19.40;99.90;;;;;;5010150;28;20947;-68
2021/06/04 04:43:18;;;;;;;18.70;15.10;;;19.40;99.90;;;;;;5010007;28;20178;-68
2021/06/04 04:45:43;;;;;;;17.57;13.80;;;19.50;99.90;;;;;;5010383;28;20424;-68
2021/06/04 04:48:09;;;;;;;15.27;13.70;;;19.50;99.90;;;;;;5011337;28;20426;-68
2021/06/04 04:50:37;;;;;;;18.20;13.90;;;19.50;99.90;;;;;;5010035;28;20205;-68
2021/06/04 04:53:03;;;;;;;17.97;13.83;;;19.50;99.90;;;;;;5007290;28;20624;-68
2021/06/04 04:55:34;;;;;;;20.00;13.30;;;19.60;99.90;;;;;;5010090;28;20460;-68
2021/06/04 04:58:00;;;;;;;13.57;12.17;;;19.60;99.90;;;;;;5002868;28;20806;-68
2021/06/04 05:00:28;;;;;;;13.33;12.00;;;19.60;99.90;;;;;;4995471;28;20465;-68
2021/06/04 05:02:54;;;;;;;13.73;12.33;;;19.60;99.90;;;;;;5010194;28;20870;-68
2021/06/04 05:05:23;;;;;;;13.60;11.10;;;19.60;99.90;;;;;;5000991;28;20475;-68
2021/06/04 05:07:49;;;;;;;13.27;10.87;;;19.70;99.90;;;;;;5003244;28;20283;-68
2021/06/04 05:10:15;;;;;;;14.67;12.60;;;19.60;99.90;;;;;;5007832;28;20554;-68
2021/06/04 05:12:41;;;;;;;13.33;11.97;;;19.70;99.90;;;;;;5008678;28;20476;-68
2021/06/04 05:15:12;;;;;;;14.70;11.47;;;19.70;99.90;;;;;;5010985;28;20597;-68
2021/06/04 05:17:37;;;;;;;15.73;13.03;;;19.70;99.90;;;;;;5010972;28;21071;-68
2021/06/04 05:20:04;;;;;;;13.53;12.10;;;19.70;99.90;;;;;;5009892;28;20448;-68
2021/06/04 05:22:30;;;;;;;12.80;11.43;;;19.70;99.90;;;;;;5008688;28;20182;-68
2021/06/04 05:24:56;;;;;;;15.50;13.90;;;19.70;99.90;;;;;;5010085;28;20490;-68
2021/06/04 05:27:21;;;;;;;16.97;14.33;;;19.70;99.90;;;;;;5007674;28;20267;-68
2021/06/04 05:29:47;;;;;;;15.17;12.20;;;19.70;99.90;;;;;;5009856;28;20280;-68
2021/06/04 05:32:13;;;;;;;14.97;13.40;;;19.70;99.90;;;;;;5009415;28;20555;-68
2021/06/04 05:34:38;;;;;;;14.00;11.60;;;19.80;99.90;;;;;;5004687;28;20183;-68
2021/06/04 05:37:05;;;;;;;13.00;11.70;;;19.90;99.90;;;;;;5003459;28;20244;-68
2021/06/04 05:39:32;;;;;;;12.17;10.90;;;19.90;99.90;;;;;;5010904;28;20268;-68
2021/06/04 05:42:01;;;;;;;13.20;11.80;;;20.00;99.90;;;;;;5007186;28;20428;-68
2021/06/04 05:44:30;;;;;;;15.07;13.57;;;20.10;99.90;;;;;;5007368;28;20421;-68
2021/06/04 05:47:02;;;;;;;16.03;14.43;;;20.10;99.90;;;;;;5009032;28;20531;-68
2021/06/04 05:49:28;;;;;;;20.73;18.00;;;20.20;99.90;;;;;;5005466;28;20464;-68
2021/06/04 05:51:55;;;;;;;21.07;17.60;;;20.20;99.90;;;;;;5009715;28;20440;-68
2021/06/04 05:54:21;;;;;;;16.50;14.57;;;20.30;99.90;;;;;;5008049;28;20428;-68
2021/06/04 05:56:47;;;;;;;17.00;15.20;;;20.40;99.90;;;;;;5007260;28;20424;-68
2021/06/04 05:59:15;;;;;;;14.90;13.50;;;20.50;99.90;;;;;;5009983;28;20520;-68
2021/06/04 06:01:42;;;;;;;14.33;12.10;;;20.50;99.90;;;;;;5010717;28;20432;-68
2021/06/04 06:04:08;;;;;;;15.23;13.33;;;20.60;99.90;;;;;;5003628;28;20445;-68
2021/06/04 06:06:34;;;;;;;16.37;14.77;;;20.70;99.90;;;;;;5004999;28;20428;-68
2021/06/04 06:09:00;;;;;;;15.43;13.83;;;20.80;99.90;;;;;;5008869;28;20663;-68
2021/06/04 06:11:27;;;;;;;14.67;13.20;;;21.00;99.90;;;;;;5010950;28;20478;-68
2021/06/04 06:13:57;;;;;;;15.73;14.00;;;21.10;99.90;;;;;;5009057;28;20166;-68
2021/06/04 06:16:25;;;;;;;18.23;14.77;;;21.30;99.90;;;;;;5008986;28;20778;-68
2021/06/04 06:18:51;;;;;;;18.17;16.30;;;21.30;99.90;;;;;;5008108;28;20841;-68
2021/06/04 06:21:16;;;;;;;18.93;17.13;;;21.30;99.90;;;;;;5009360;28;20467;-68
2021/06/04 06:23:42;;;;;;;19.23;17.43;;;21.40;99.90;;;;;;5006529;28;20682;-68
2021/06/04 06:26:15;;;;;;;17.93;16.07;;;21.40;99.90;;;;;;5004843;28;21405;-68
2021/06/04 06:28:42;;;;;;;26.13;20.90;;;21.50;99.90;;;;;;5023405;28;20235;-68
2021/06/04 06:31:15;;;;;;;23.23;18.10;;;21.50;99.90;;;;;;5007961;28;20937;-68
2021/06/04 06:33:41;;;;;;;20.07;17.97;;;21.60;99.90;;;;;;5005195;28;20433;-68
2021/06/04 06:36:11;;;;;;;19.70;17.60;;;21.70;99.90;;;;;;5005851;28;20443;-68
2021/06/04 06:38:37;;;;;;;18.93;17.13;;;21.80;99.90;;;;;;5010382;28;20529;-68
2021/06/04 06:41:06;;;;;;;18.50;16.07;;;21.90;99.90;;;;;;5008560;28;20428;-68
2021/06/04 06:43:33;;;;;;;19.03;14.73;;;22.10;99.90;;;;;;5008195;28;20435;-68
2021/06/04 06:45:59;;;;;;;18.90;17.00;;;22.20;99.90;;;;;;5007810;28;20561;-68
2021/06/04 06:48:25;;;;;;;19.80;17.80;;;22.50;99.90;;;;;;5009255;28;20511;-68
2021/06/04 06:50:53;;;;;;;18.53;16.37;;;22.60;99.90;;;;;;5008070;28;20913;-68
2021/06/04 06:53:19;;;;;;;18.27;16.43;;;22.70;99.90;;;;;;5004831;28;20428;-68
2021/06/04 06:55:45;;;;;;;19.20;16.40;;;22.80;99.90;;;;;;5007240;28;20456;-68
2021/06/04 06:58:13;;;;;;;18.53;16.73;;;23.00;99.90;;;;;;5009842;28;20428;-68
2021/06/04 07:00:42;;;;;;;16.90;15.20;;;23.10;99.90;;;;;;5008139;28;20440;-68
2021/06/04 07:03:10;;;;;;;17.93;15.80;;;23.20;99.90;;;;;;5005077;28;20431;-68
2021/06/04 07:05:37;;;;;;;17.80;15.20;;;23.40;99.90;;;;;;5006217;28;20440;-68
2021/06/04 07:08:04;;;;;;;18.80;14.77;;;23.50;99.90;;;;;;5008785;28;20432;-68
2021/06/04 07:10:30;;;;;;;17.50;11.97;;;23.60;99.90;;;;;;5024126;28;20464;-68
2021/06/04 07:12:59;;;;;;;12.53;10.67;;;23.80;99.90;;;;;;5007744;28;20432;-68
2021/06/04 07:15:27;;;;;;;14.53;12.77;;;24.00;99.90;;;;;;5002467;28;20455;-68
2021/06/04 07:17:54;;;;;;;14.87;13.13;;;24.10;99.90;;;;;;4996145;28;20440;-68
2021/06/04 07:20:23;;;;;;;13.70;12.27;;;24.20;99.90;;;;;;5006449;28;20436;-68
2021/06/04 07:22:50;;;;;;;13.73;11.90;;;24.30;99.90;;;;;;5005962;28;20497;-68
2021/06/04 07:25:17;;;;;;;14.13;12.83;;;24.40;99.90;;;;;;5007229;28;20432;-68
2021/06/04 07:27:45;;;;;;;12.87;11.30;;;24.40;99.90;;;;;;5003237;28;20444;-68
2021/06/04 07:30:13;;;;;;;14.87;12.30;;;24.60;99.90;;;;;;5009086;28;20460;-68
2021/06/04 07:32:41;;;;;;;13.97;11.67;;;24.70;99.90;;;;;;5008104;28;20428;-68
2021/06/04 07:35:09;;;;;;;12.30;11.10;;;24.90;99.90;;;;;;4994614;28;20444;-68
2021/06/04 07:37:35;;;;;;;14.00;12.50;;;25.10;99.90;;;;;;5007948;28;20484;-69
2021/06/04 07:40:00;;;;;;;13.47;11.03;;;25.60;99.90;;;;;;5007466;28;20930;-69
2021/06/04 07:42:26;;;;;;;12.47;11.07;;;26.00;99.90;;;;;;5006370;28;20219;-69
2021/06/04 07:44:52;;;;;;;14.40;10.50;;;26.40;99.90;;;;;;5005269;28;20182;-69
2021/06/04 07:47:17;;;;;;;12.97;11.50;;;26.60;99.90;;;;;;4995510;28;20433;-69
2021/06/04 07:49:43;;;;;;;19.10;14.57;;;26.70;99.90;;;;;;5002154;28;20207;-69
2021/06/04 07:52:08;;;;;;;19.83;14.73;;;26.90;99.90;;;;;;5007028;28;20270;-69
2021/06/04 07:54:34;;;;;;;19.03;16.70;;;27.60;99.90;;;;;;4998101;28;20196;-69
2021/06/04 07:57:03;;;;;;;20.37;17.90;;;28.50;99.90;;;;;;5007255;28;20560;-69
2021/06/04 07:59:28;;;;;;;21.50;19.27;;;28.70;99.90;;;;;;5006695;28;20455;-69
2021/06/04 08:01:54;;;;;;;30.13;19.57;;;28.70;99.90;;;;;;5005775;28;20953;-69
2021/06/04 08:04:20;;;;;;;25.77;18.00;;;29.00;99.90;;;;;;5003985;28;20260;-69
2021/06/04 08:06:46;;;;;;;21.00;18.80;;;29.60;98.40;;;;;;5004807;28;20335;-69
2021/06/04 08:09:14;;;;;;;24.97;18.03;;;30.30;96.60;;;;;;5009542;28;20459;-69
2021/06/04 08:11:56;;;;;;;20.00;17.87;;;30.80;93.60;;;;;;5011544;28;20440;-69
2021/06/04 08:14:24;;;;;;;23.80;16.20;;;31.10;90.90;;;;;;5003149;28;20429;-69
2021/06/04 08:16:50;;;;;;;19.73;17.67;;;31.80;86.40;;;;;;4998494;28;20428;-69
2021/06/04 08:19:18;;;;;;;19.50;15.33;;;32.80;78.90;;;;;;5003841;28;20930;-69
2021/06/04 08:21:47;;;;;;;17.30;15.60;;;33.70;73.70;;;;;;5013272;28;20436;-70
2021/06/04 08:24:15;;;;;;;15.67;13.90;;;34.70;68.50;;;;;;5008002;28;20842;-70
2021/06/04 08:26:42;;;;;;;16.07;14.53;;;35.40;64.40;;;;;;5003761;28;20428;-70
2021/06/04 08:29:09;;;;;;;14.70;13.40;;;36.30;57.00;;;;;;5003955;28;20456;-70
2021/06/04 08:31:36;;;;;;;16.27;14.73;;;36.90;53.30;;;;;;5002197;28;20435;-70
2021/06/04 08:34:02;;;;;;;14.67;13.27;;;36.70;51.70;;;;;;5008457;28;20602;-70
2021/06/04 08:36:31;;;;;;;14.23;12.83;;;36.40;51.00;;;;;;5011940;28;20439;-70
2021/06/04 08:38:59;;;;;;;13.00;11.80;;;36.70;51.90;;;;;;5010531;28;20525;-70
2021/06/04 08:41:52;;;;;;;13.97;11.13;;;37.30;50.10;;;;;;5010375;28;20431;-70
2021/06/04 08:44:41;;;;;;;11.77;10.67;;;37.80;45.10;;;;;;5010143;28;20873;-70
2021/06/04 08:47:16;;;;;;;12.97;11.67;;;37.70;46.90;;;;;;5009851;28;20810;-70
2021/06/04 08:50:16;;;;;;;11.03;9.40;;;38.00;44.60;;;;;;5008378;28;20637;-70
2021/06/04 08:52:58;;;;;;;7.90;7.10;;;37.90;43.30;;;;;;5009195;28;20416;-70
2021/06/04 08:55:41;;;;;;;9.23;8.33;;;38.50;40.40;;;;;;5006728;28;20423;-70
2021/06/04 08:58:34;;;;;;;10.40;9.50;;;39.30;38.90;;;;;;5010667;28;20846;-70
2021/06/04 09:01:10;;;;;;;9.20;8.40;;;39.60;38.20;;;;;;5010588;28;20924;-70
2021/06/04 09:03:39;;;;;;;11.17;9.97;;;39.70;37.80;;;;;;5009069;28;20420;-69
2021/06/04 09:06:26;;;;;;;10.63;8.70;;;39.90;37.20;;;;;;5007311;28;20441;-69
2021/06/04 09:08:52;;;;;;;8.03;7.07;;;40.20;36.80;;;;;;5001122;28;20452;-68
2021/06/04 09:11:34;;;;;;;13.03;9.60;;;40.20;35.70;;;;;;5011587;28;20428;-68
2021/06/04 09:13:59;;;;;;;8.03;7.23;;;40.00;36.00;;;;;;5000106;28;20431;-68
2021/06/04 09:16:41;;;;;;;8.70;7.53;;;39.40;37.50;;;;;;5007008;28;20531;-68
2021/06/04 09:19:27;;;;;;;9.70;6.17;;;38.80;37.60;;;;;;5008995;28;20189;-68
2021/06/04 09:21:54;;;;;;;6.70;6.10;;;38.70;37.70;;;;;;5009035;28;20419;-68
2021/06/04 09:24:29;;;;;;;7.00;6.40;;;38.70;36.10;;;;;;5005525;28;20502;-68
2021/06/04 09:26:55;;;;;;;6.80;6.20;;;38.80;35.80;;;;;;4999032;28;20920;-68
2021/06/04 09:29:24;;;;;;;8.43;6.00;;;38.40;34.20;;;;;;5009104;28;20506;-68
2021/06/04 09:32:16;;;;;;;7.57;5.80;;;38.00;35.70;;;;;;5009975;28;20173;-68
2021/06/04 09:34:41;;;;;;;11.37;8.30;;;37.60;35.10;;;;;;5007428;28;20432;-68
2021/06/04 09:37:23;;;;;;;9.40;8.10;;;37.40;36.90;;;;;;5009692;28;20470;-70
2021/06/04 09:39:53;;;;;;;9.73;8.70;;;37.10;38.40;;;;;;5007259;28;20247;-70
2021/06/04 09:42:31;;;;;;;10.93;7.87;;;36.70;39.40;;;;;;5002642;28;20424;-70
2021/06/04 09:45:04;;;;;;;7.83;7.00;;;36.30;39.40;;;;;;5007465;28;20463;-70
2021/06/04 09:47:42;;;;;;;8.33;7.40;;;35.90;40.20;;;;;;5003672;28;20908;-70
2021/06/04 09:50:33;;;;;;;10.23;8.70;;;35.50;41.40;;;;;;5008513;28;20911;-70
2021/06/04 09:53:08;;;;;;;9.50;8.60;;;35.20;43.00;;;;;;5005730;28;20428;-70
2021/06/04 09:55:41;;;;;;;9.77;8.83;;;34.70;43.50;;;;;;5004650;28;20427;-70
2021/06/04 09:58:07;;;;;;;8.93;8.03;;;34.30;43.40;;;;;;5008442;28;20421;-70
2021/06/04 10:00:38;;;;;;;11.23;10.20;;;33.70;44.90;;;;;;5009102;28;20521;-70
2021/06/04 10:03:05;;;;;;;11.43;9.67;;;33.20;45.70;;;;;;5005796;28;20786;-70
2021/06/04 10:05:32;;;;;;;11.53;10.33;;;32.90;46.10;;;;;;4997526;28;20432;-70
2021/06/04 10:08:22;;;;;;;16.93;12.00;;;32.60;46.40;;;;;;4997055;28;20515;-70
2021/06/04 10:11:12;;;;;;;12.53;11.23;;;32.40;47.10;;;;;;5001929;28;20842;-70
2021/06/04 10:14:08;;;;;;;12.03;10.90;;;32.20;48.60;;;;;;5008044;28;20435;-70
2021/06/04 10:19:17;;;;;;;13.63;12.40;;;32.20;49.20;;;;;;5008556;28;20471;-69
2021/06/04 10:21:43;;;;;;;14.50;11.93;;;32.20;49.10;;;;;;5008239;28;20463;-69
2021/06/04 10:24:22;;;;;;;13.23;12.03;;;32.10;48.80;;;;;;5007280;28;20444;-70
2021/06/04 10:26:57;;;;;;;13.13;11.80;;;32.00;49.00;;;;;;5005585;28;20192;-70
2021/06/04 10:29:23;;;;;;;17.80;14.20;;;31.70;49.20;;;;;;5009877;28;20832;-70
2021/06/04 10:31:58;;;;;;;14.93;13.60;;;31.40;49.80;;;;;;5008769;28;20424;-69
2021/06/04 10:34:45;;;;;;;17.40;12.00;;;31.00;50.70;;;;;;5005877;28;20170;-70
2021/06/04 10:37:19;;;;;;;17.73;14.53;;;30.70;52.10;;;;;;5008108;28;20460;-69
2021/06/04 10:39:54;;;;;;;15.90;12.80;;;30.50;52.80;;;;;;5003077;28;21064;-69
2021/06/04 10:42:42;;;;;;;15.13;10.93;;;30.30;53.20;;;;;;5002029;28;20518;-69
2021/06/04 10:45:23;;;;;;;15.57;13.87;;;30.30;53.20;;;;;;5001913;28;20424;-69
2021/06/04 10:48:41;;;;;;;13.40;11.93;;;30.30;53.40;;;;;;5001388;28;20443;-69
2021/06/04 10:51:38;;;;;;;14.67;13.00;;;30.20;53.60;;;;;;4983687;28;20445;-69
2021/06/04 10:54:24;;;;;;;12.37;11.17;;;30.10;54.40;;;;;;4987506;28;20435;-69
2021/06/04 10:56:58;;;;;;;12.03;11.00;;;30.00;54.30;;;;;;4999847;28;20973;-69
2021/06/04 10:59:33;;;;;;;14.17;12.10;;;30.10;54.00;;;;;;5005720;28;20931;-69
2021/06/04 11:02:05;;;;;;;15.90;11.70;;;30.10;54.50;;;;;;5006757;28;21027;-70
2021/06/04 11:04:55;;;;;;;16.30;12.63;;;30.10;54.30;;;;;;4993024;28;20504;-70
2021/06/04 11:07:36;;;;;;;15.40;13.83;;;30.10;53.60;;;;;;5000269;28;20428;-70
2021/06/04 11:10:24;;;;;;;13.77;12.57;;;29.80;53.50;;;;;;5009791;28;20479;-69
2021/06/04 11:13:28;;;;;;;13.30;11.30;;;29.70;54.00;;;;;;5009207;28;20432;-70
2021/06/04 11:16:05;;;;;;;15.20;13.73;;;29.50;55.00;;;;;;4994891;28;20514;-70
2021/06/04 11:18:40;;;;;;;11.00;9.23;;;29.50;54.90;;;;;;5000204;28;20435;-70
2021/06/04 11:21:16;;;;;;;13.10;10.87;;;29.40;54.70;;;;;;5009080;28;20432;-69
2021/06/04 11:23:51;;;;;;;12.13;11.03;;;29.20;55.60;;;;;;5007422;28;20424;-69
2021/06/04 11:26:33;;;;;;;20.67;18.63;;;29.00;55.50;;;;;;5003779;28;20463;-70
2021/06/04 11:29:11;;;;;;;20.93;18.73;;;28.80;57.30;;;;;;5007780;28;20452;-70
2021/06/04 11:31:46;;;;;;;16.27;14.60;;;28.60;57.90;;;;;;5008040;28;20424;-70
2021/06/04 11:34:48;;;;;;;19.90;18.00;;;28.40;58.10;;;;;;5003704;28;20424;-70
2021/06/04 11:37:23;;;;;;;20.13;18.03;;;28.20;58.80;;;;;;5006855;28;21071;-69
2021/06/04 11:39:52;;;;;;;16.40;14.83;;;28.00;59.20;;;;;;5000809;28;20797;-69
2021/06/04 11:42:25;;;;;;;17.27;15.67;;;27.80;59.70;;;;;;5004439;28;20764;-70
2021/06/04 11:44:55;;;;;;;15.00;13.80;;;27.70;59.90;;;;;;5006031;28;20455;-70
2021/06/04 11:47:22;;;;;;;12.60;11.50;;;27.70;60.60;;;;;;5006711;28;20428;-70
2021/06/04 11:49:57;;;;;;;11.13;10.13;;;27.60;60.50;;;;;;5006852;28;20883;-69
2021/06/04 11:52:45;;;;;;;16.70;15.27;;;27.60;60.20;;;;;;5007651;28;20424;-69
2021/06/04 11:55:25;;;;;;;18.50;16.60;;;27.60;62.20;;;;;;5008919;28;20436;-69
2021/06/04 11:57:58;;;;;;;21.67;17.70;;;27.70;62.10;;;;;;5007586;28;20523;-70
2021/06/04 12:00:42;;;;;;;19.17;17.47;;;27.70;61.80;;;;;;5006288;28;20492;-70
2021/06/04 12:03:08;;;;;;;17.33;15.73;;;27.70;61.30;;;;;;5003884;28;20420;-70
2021/06/04 12:05:42;;;;;;;15.60;14.00;;;27.60;61.90;;;;;;5006244;28;20429;-69
2021/06/04 12:08:25;;;;;;;14.93;13.53;;;27.50;61.80;;;;;;5006563;28;20204;-69
2021/06/04 12:11:25;;;;;;;12.23;11.10;;;27.40;61.50;;;;;;5020550;28;20497;-70
2021/06/04 12:13:52;;;;;;;14.70;13.30;;;27.30;61.90;;;;;;5001512;28;20420;-70
2021/06/04 12:16:26;;;;;;;11.87;10.73;;;27.40;62.30;;;;;;5003638;28;20416;-69
2021/06/04 12:18:52;;;;;;;15.17;13.77;;;27.30;61.90;;;;;;5008112;28;20529;-69
2021/06/04 12:21:40;;;;;;;16.10;14.47;;;27.40;64.20;;;;;;5007030;28;20467;-69
2021/06/04 12:24:19;;;;;;;15.23;13.63;;;27.40;63.30;;;;;;5003577;28;20230;-70
2021/06/04 12:27:00;;;;;;;17.63;15.47;;;27.50;63.50;;;;;;5002336;28;20432;-70
2021/06/04 12:29:31;;;;;;;14.87;13.53;;;27.50;63.80;;;;;;5006773;28;20463;-69
2021/06/04 12:32:09;;;;;;;13.33;12.10;;;27.50;64.00;;;;;;5006984;28;20440;-70
2021/06/04 12:34:35;;;;;;;10.33;9.43;;;27.50;63.70;;;;;;4996862;28;20425;-69
2021/06/04 12:37:10;;;;;;;11.50;10.33;;;27.50;62.50;;;;;;4999618;28;21303;-69
2021/06/04 12:39:50;;;;;;;14.57;13.10;;;27.70;62.60;;;;;;5007621;28;20267;-69
2021/06/04 12:42:24;;;;;;;14.80;13.47;;;27.70;62.10;;;;;;5004989;28;20871;-69
2021/06/04 12:45:10;;;;;;;16.33;11.97;;;27.70;62.60;;;;;;5006707;28;20427;-69
2021/06/04 12:48:05;;;;;;;10.20;9.30;;;27.70;62.90;;;;;;5006672;28;20566;-69
2021/06/04 12:50:44;;;;;;;15.13;13.83;;;27.80;60.60;;;;;;5006482;28;20514;-69
2021/06/04 12:53:28;;;;;;;12.70;11.60;;;27.80;62.80;;;;;;5006629;28;20822;-69
2021/06/04 12:55:59;;;;;;;16.17;14.57;;;27.80;61.40;;;;;;5010774;28;20455;-69
2021/06/04 12:58:29;;;;;;;14.50;13.30;;;27.80;63.30;;;;;;5009727;28;20428;-70